Time;durP1;ratioP1;P1;durP2;ratioP2;P2;SDS_P1;SDS_P2;PMS_P1;PMS_P2;Temp;Humidity;BMP_temperature;BMP_pressure;BME280_temperature;BME280_humidity;BME280_pressure;Samples;Min_cycle;Max_cycle;Signal;HPM_P1;HPM_P2
2023/11/06 00:02:21;;;;;;;;;;;;;;;9.02;80.69;98152.91;4835164;29;19924;-76
2023/11/06 00:04:47;;;;;;;;;;;;;;;9.01;80.37;98149.47;4836473;29;20267;-77
2023/11/06 00:07:12;;;;;;;;;;;;;;;9.01;80.47;98148.63;4837034;29;19935;-74
2023/11/06 00:09:39;;;;;;;;;;;;;;;9.00;80.52;98142.56;4835388;29;20014;-72
2023/11/06 00:12:04;;;;;;;;;;;;;;;9.06;81.02;98143.28;4835550;29;19930;-72
2023/11/06 00:14:35;;;;;;;;;;;;;;;9.03;80.96;98139.06;4835029;29;19932;-74
2023/11/06 00:17:01;;;;;;;;;;;;;;;9.09;80.70;98132.84;4819686;29;19929;-75
2023/11/06 00:19:27;;;;;;;;;;;;;;;9.15;80.90;98138.69;4820023;29;19980;-74
2023/11/06 00:21:52;;;;;;;;;;;;;;;9.15;80.79;98132.66;4820070;29;19950;-75
2023/11/06 00:24:18;;;;;;;;;;;;;;;9.18;80.75;98135.13;4819148;29;21171;-75
2023/11/06 00:26:45;;;;;;;;;;;;;;;9.17;81.08;98131.69;4826384;29;19924;-75
2023/11/06 00:29:11;;;;;;;;;;;;;;;9.22;81.13;98123.78;4835122;29;20068;-74
2023/11/06 00:31:38;;;;;;;;;;;;;;;9.24;80.89;98119.38;4804103;29;19965;-75
2023/11/06 00:34:04;;;;;;;;;;;;;;;9.33;81.40;98118.25;4820683;29;19924;-75
2023/11/06 00:36:29;;;;;;;;;;;;;;;9.35;80.79;98111.28;4820512;29;20022;-79
2023/11/06 00:38:55;;;;;;;;;;;;;;;9.38;80.59;98124.16;4835354;29;19977;-78
2023/11/06 00:41:21;;;;;;;;;;;;;;;9.41;80.76;98110.22;4835106;29;19931;-76
2023/11/06 00:43:51;;;;;;;;;;;;;;;9.43;80.63;98109.31;4820469;29;19924;-76
2023/11/06 00:46:19;;;;;;;;;;;;;;;9.47;80.81;98120.44;4820224;29;19996;-75
2023/11/06 00:48:45;;;;;;;;;;;;;;;9.49;80.67;98123.81;4820351;29;20109;-77
2023/11/06 00:51:11;;;;;;;;;;;;;;;9.49;80.82;98103.91;4835889;29;20401;-79
2023/11/06 00:53:39;;;;;;;;;;;;;;;9.46;80.36;98121.31;4820622;29;19957;-77
2023/11/06 00:56:06;;;;;;;;;;;;;;;9.43;80.50;98105.84;4836021;29;19928;-76
2023/11/06 00:58:32;;;;;;;;;;;;;;;9.43;80.90;98105.84;4834223;29;19932;-75
2023/11/06 01:01:03;;;;;;;;;;;;;;;9.45;80.88;98098.84;4852282;29;19927;-75
2023/11/06 01:03:29;;;;;;;;;;;;;;;9.51;81.36;98101.25;4852840;29;19924;-75
2023/11/06 01:05:55;;;;;;;;;;;;;;;9.52;81.16;98112.50;4837881;29;19928;-77
2023/11/06 01:08:20;;;;;;;;;;;;;;;9.57;80.96;98095.88;4838509;29;19930;-73
2023/11/06 01:10:46;;;;;;;;;;;;;;;9.60;80.77;98100.13;4822303;29;19924;-75
2023/11/06 01:13:13;;;;;;;;;;;;;;;9.61;81.09;98099.22;4823586;29;19924;-75
2023/11/06 01:15:38;;;;;;;;;;;;;;;9.57;80.91;98077.72;4843466;29;19928;-73
2023/11/06 01:18:04;;;;;;;;;;;;;;;9.59;81.17;98073.31;4852925;29;20348;-73
2023/11/06 01:20:30;;;;;;;;;;;;;;;9.66;81.16;98081.75;4822928;29;20395;-71
2023/11/06 01:22:56;;;;;;;;;;;;;;;9.67;81.30;98075.66;4836498;29;20498;-72
2023/11/06 01:25:22;;;;;;;;;;;;;;;9.69;81.00;98071.28;4852188;29;19924;-73
2023/11/06 01:27:48;;;;;;;;;;;;;;;9.70;81.15;98072.09;4836877;29;19938;-72
2023/11/06 01:30:13;;;;;;;;;;;;;;;9.72;80.80;98071.13;4838006;29;19971;-72
2023/11/06 01:32:39;;;;;;;;;;;;;;;9.75;80.91;98059.81;4835504;29;19940;-73
2023/11/06 01:35:11;;;;;;;;;;;;;;;9.80;81.33;98055.31;4853230;29;19931;-73
2023/11/06 01:37:38;;;;;;;;;;;;;;;9.80;80.94;98057.94;4836593;29;20391;-72
2023/11/06 01:40:07;;;;;;;;;;;;;;;9.69;81.05;98031.44;4832717;29;19924;-71
2023/11/06 01:42:32;;;;;;;;;;;;;;;9.92;81.48;98056.66;4853911;29;19924;-72
2023/11/06 01:44:58;;;;;;;;;;;;;;;9.95;80.99;98057.41;4820411;29;19928;-72
2023/11/06 01:47:24;;;;;;;;;;;;;;;10.00;81.29;98065.03;4836805;29;20043;-73
2023/11/06 01:49:50;;;;;;;;;;;;;;;10.02;81.33;98065.81;4851824;29;19960;-73
2023/11/06 01:52:17;;;;;;;;;;;;;;;10.07;81.36;98074.31;4850254;29;20006;-73
2023/11/06 01:54:43;;;;;;;;;;;;;;;10.09;80.97;98062.13;4836429;29;19927;-73
2023/11/06 01:57:13;;;;;;;;;;;;;;;10.14;81.42;98061.97;4821670;29;20027;-73
2023/11/06 01:59:39;;;;;;;;;;;;;;;10.16;81.11;98062.75;4813851;29;19928;-73
2023/11/06 02:02:05;;;;;;;;;;;;;;;10.23;81.33;98082.44;4837029;29;20026;-72
2023/11/06 02:04:31;;;;;;;;;;;;;;;10.24;81.13;98073.75;4852410;29;20423;-72
2023/11/06 02:06:57;;;;;;;;;;;;;;;10.24;81.47;98068.53;4836503;29;19924;-74
2023/11/06 02:09:25;;;;;;;;;;;;;;;10.27;81.08;98074.50;4837501;29;19931;-75
2023/11/06 02:11:51;;;;;;;;;;;;;;;10.31;81.07;98076.97;4851517;29;19924;-72
2023/11/06 02:14:17;;;;;;;;;;;;;;;10.34;81.38;98076.00;4836341;29;19924;-72
2023/11/06 02:16:42;;;;;;;;;;;;;;;10.37;80.97;98081.09;4837079;29;19936;-73
2023/11/06 02:19:09;;;;;;;;;;;;;;;10.40;81.42;98076.66;4837651;29;20103;-73
2023/11/06 02:21:35;;;;;;;;;;;;;;;10.42;80.98;98073.16;4821401;29;20766;-72
2023/11/06 02:24:02;;;;;;;;;;;;;;;10.46;81.47;98085.16;4834873;29;19924;-72
2023/11/06 02:26:31;;;;;;;;;;;;;;;10.48;81.11;98097.19;4852194;29;19960;-72
2023/11/06 02:28:56;;;;;;;;;;;;;;;10.49;80.97;98085.03;4836190;29;19934;-76
2023/11/06 02:31:23;;;;;;;;;;;;;;;10.52;81.53;98087.53;4852394;29;20419;-74
2023/11/06 02:33:49;;;;;;;;;;;;;;;10.52;81.07;98080.56;4853433;29;19939;-75
2023/11/06 02:36:14;;;;;;;;;;;;;;;10.55;81.34;98075.25;4853861;29;20676;-75
2023/11/06 02:38:40;;;;;;;;;;;;;;;10.59;81.30;98080.34;4852809;29;19987;-75
2023/11/06 02:41:06;;;;;;;;;;;;;;;10.64;81.25;98081.88;4854251;29;19971;-74
2023/11/06 02:43:32;;;;;;;;;;;;;;;10.71;81.72;98077.28;4838388;29;19924;-75
2023/11/06 02:45:58;;;;;;;;;;;;;;;10.73;81.25;98083.28;4848379;29;19923;-75
2023/11/06 02:48:24;;;;;;;;;;;;;;;10.75;81.31;98085.84;4856795;29;20026;-74
2023/11/06 02:50:50;;;;;;;;;;;;;;;10.76;81.10;98100.56;4823836;29;20030;-73
2023/11/06 02:53:15;;;;;;;;;;;;;;;10.77;81.46;98087.47;4850186;29;19927;-72
2023/11/06 02:55:41;;;;;;;;;;;;;;;10.78;81.30;98090.94;4856517;29;20028;-74
2023/11/06 02:58:07;;;;;;;;;;;;;;;10.78;80.97;98089.19;4840655;29;19928;-73
2023/11/06 03:00:33;;;;;;;;;;;;;;;10.80;81.21;98086.53;4825023;29;19940;-73
2023/11/06 03:02:59;;;;;;;;;;;;;;;10.83;81.22;98107.22;4854125;29;19928;-73
2023/11/06 03:05:25;;;;;;;;;;;;;;;10.85;81.53;98087.19;4840152;29;20391;-73
2023/11/06 03:07:51;;;;;;;;;;;;;;;10.85;80.99;98095.88;4855566;29;19928;-73
2023/11/06 03:10:17;;;;;;;;;;;;;;;10.85;80.90;98106.28;4856030;29;20018;-72
2023/11/06 03:12:42;;;;;;;;;;;;;;;10.81;81.03;98102.06;4845935;29;20026;-72
2023/11/06 03:15:10;;;;;;;;;;;;;;;10.75;80.78;98115.31;4854435;29;20392;-73
2023/11/06 03:17:36;;;;;;;;;;;;;;;10.68;80.79;98116.44;4838698;29;19936;-72
2023/11/06 03:20:10;;;;;;;;;;;;;;;10.62;80.75;98117.50;4855461;29;20295;-72
2023/11/06 03:22:37;;;;;;;;;;;;;;;10.52;80.70;98122.19;4854832;29;19928;-70
2023/11/06 03:25:04;;;;;;;;;;;;;;;10.40;80.69;98143.44;4855123;29;20079;-72
2023/11/06 03:27:33;;;;;;;;;;;;;;;10.33;80.43;98139.31;4824509;29;19967;-71
2023/11/06 03:29:59;;;;;;;;;;;;;;;10.23;80.47;98134.44;4854875;29;19983;-71
2023/11/06 03:32:24;;;;;;;;;;;;;;;10.07;80.56;98135.81;4839246;29;20383;-73
2023/11/06 03:34:50;;;;;;;;;;;;;;;9.90;80.39;98126.84;4839094;29;19984;-71
2023/11/06 03:37:17;;;;;;;;;;;;;;;9.84;80.43;98129.63;4854255;29;19979;-71
2023/11/06 03:39:43;;;;;;;;;;;;;;;9.86;80.58;98121.81;4836534;29;19928;-72
2023/11/06 03:42:12;;;;;;;;;;;;;;;9.88;80.19;98126.03;4823291;29;20384;-72
2023/11/06 03:44:38;;;;;;;;;;;;;;;9.88;80.15;98136.44;4845307;29;19931;-72
2023/11/06 03:47:04;;;;;;;;;;;;;;;9.90;79.83;98137.25;4855277;29;19924;-71
2023/11/06 03:49:30;;;;;;;;;;;;;;;9.90;80.10;98139.00;4839832;29;19924;-71
2023/11/06 03:51:56;;;;;;;;;;;;;;;9.93;80.25;98142.34;4838970;29;19928;-73
2023/11/06 03:54:22;;;;;;;;;;;;;;;9.96;79.56;98136.19;4839762;29;19949;-76
2023/11/06 03:56:48;;;;;;;;;;;;;;;10.01;79.90;98143.84;4854233;29;19932;-74
2023/11/06 03:59:14;;;;;;;;;;;;;;;10.02;79.87;98151.56;4830314;29;19934;-74
2023/11/06 04:01:40;;;;;;;;;;;;;;;10.06;79.20;98154.91;4842314;29;19931;-74
2023/11/06 04:04:06;;;;;;;;;;;;;;;10.09;79.33;98160.00;4829213;29;19936;-74
2023/11/06 04:06:33;;;;;;;;;;;;;;;10.08;78.97;98161.78;4828938;29;20392;-75
2023/11/06 04:08:59;;;;;;;;;;;;;;;10.07;78.74;98165.28;4843318;29;19924;-74
2023/11/06 04:11:25;;;;;;;;;;;;;;;10.07;78.87;98164.41;4829763;29;19936;-72
2023/11/06 04:13:53;;;;;;;;;;;;;;;10.10;79.08;98172.13;4842858;29;19968;-71
2023/11/06 04:16:23;;;;;;;;;;;;;;;10.05;78.69;98174.88;4841804;29;19967;-74
2023/11/06 04:18:50;;;;;;;;;;;;;;;10.03;78.47;98176.66;4859419;29;19928;-72
2023/11/06 04:21:17;;;;;;;;;;;;;;;10.06;78.47;98180.91;4840670;29;19924;-72
2023/11/06 04:23:45;;;;;;;;;;;;;;;9.97;78.11;98186.41;4786604;29;20341;-72
2023/11/06 04:26:11;;;;;;;;;;;;;;;9.90;78.07;98190.97;4826208;29;19925;-72
2023/11/06 04:28:37;;;;;;;;;;;;;;;9.84;78.13;98192.00;4842537;29;19936;-72
2023/11/06 04:31:03;;;;;;;;;;;;;;;9.80;78.22;98177.41;4856339;29;20054;-73
2023/11/06 04:33:29;;;;;;;;;;;;;;;9.72;78.36;98176.81;4841805;29;19947;-72
2023/11/06 04:35:55;;;;;;;;;;;;;;;9.65;77.61;98181.34;4841815;29;20406;-72
2023/11/06 04:38:21;;;;;;;;;;;;;;;9.62;77.75;98181.44;4842562;29;19936;-74
2023/11/06 04:40:53;;;;;;;;;;;;;;;9.64;78.16;98180.47;4842551;29;20397;-73
2023/11/06 04:43:19;;;;;;;;;;;;;;;9.69;77.90;98182.09;4835293;29;19935;-71
2023/11/06 04:45:44;;;;;;;;;;;;;;;9.74;78.11;98177.59;4840277;29;19936;-73
2023/11/06 04:48:10;;;;;;;;;;;;;;;9.76;77.50;98184.44;4843594;29;19957;-72
2023/11/06 04:50:36;;;;;;;;;;;;;;;9.78;77.80;98177.44;4826411;29;19931;-72
2023/11/06 04:53:02;;;;;;;;;;;;;;;9.80;77.64;98185.22;4843385;29;19924;-71
2023/11/06 04:55:28;;;;;;;;;;;;;;;9.81;77.93;98192.09;4827251;29;19967;-73
2023/11/06 04:57:54;;;;;;;;;;;;;;;9.83;77.87;98190.28;4841720;29;19987;-73
2023/11/06 05:00:20;;;;;;;;;;;;;;;9.86;77.47;98199.75;4843235;29;19996;-72
2023/11/06 05:02:49;;;;;;;;;;;;;;;9.84;77.90;98197.19;4843121;29;19963;-72
2023/11/06 05:05:15;;;;;;;;;;;;;;;9.87;77.81;98197.09;4856827;29;20068;-73
2023/11/06 05:07:41;;;;;;;;;;;;;;;9.85;77.64;98200.66;4849388;29;19931;-75
2023/11/06 05:10:07;;;;;;;;;;;;;;;9.77;77.08;98187.91;4843346;29;20319;-72
2023/11/06 05:12:33;;;;;;;;;;;;;;;9.70;77.55;98189.84;4857840;29;20039;-74
2023/11/06 05:15:00;;;;;;;;;;;;;;;9.74;77.78;98194.03;4856986;29;20026;-75
2023/11/06 05:17:26;;;;;;;;;;;;;;;9.78;77.45;98197.41;4851415;29;19928;-74
2023/11/06 05:19:52;;;;;;;;;;;;;;;9.80;77.51;98193.84;4856805;29;19972;-75
2023/11/06 05:22:21;;;;;;;;;;;;;;;9.80;77.07;98191.25;4827681;29;19963;-74
2023/11/06 05:24:50;;;;;;;;;;;;;;;9.80;76.97;98187.81;4843617;29;20364;-74
2023/11/06 05:27:15;;;;;;;;;;;;;;;9.83;77.19;98199.84;4855916;29;20011;-73
2023/11/06 05:29:42;;;;;;;;;;;;;;;9.86;77.21;98203.19;4857075;29;19928;-75
2023/11/06 05:32:08;;;;;;;;;;;;;;;9.85;77.29;98203.25;4858675;29;19952;-75
2023/11/06 05:34:34;;;;;;;;;;;;;;;9.82;77.06;98201.56;4857134;29;20098;-76
2023/11/06 05:37:06;;;;;;;;;;;;;;;9.81;77.17;98197.31;4851172;29;19935;-75
2023/11/06 05:39:37;;;;;;;;;;;;;;;9.84;77.31;98196.34;4856665;29;19928;-76
2023/11/06 05:42:09;;;;;;;;;;;;;;;9.79;77.20;98192.13;4843105;29;19928;-75
2023/11/06 05:44:38;;;;;;;;;;;;;;;9.87;77.81;98189.28;4829758;29;19935;-80
2023/11/06 05:47:48;;;;;;;;;;;;;;;9.93;77.33;98190.88;4845331;29;19928;-74
2023/11/06 05:50:34;;;;;;;;;;;;;;;10.07;77.18;98190.41;4841071;29;20436;-73
2023/11/06 05:53:00;;;;;;;;;;;;;;;10.11;76.97;98205.00;4854340;29;19924;-72
2023/11/06 05:55:29;;;;;;;;;;;;;;;10.10;76.75;98201.56;4857549;29;20072;-73
2023/11/06 05:57:58;;;;;;;;;;;;;;;10.11;76.68;98199.81;4851999;29;19929;-73
2023/11/06 06:00:24;;;;;;;;;;;;;;;10.13;77.11;98200.59;4833835;29;20414;-73
2023/11/06 06:02:50;;;;;;;;;;;;;;;10.09;76.44;98201.59;4820073;29;19924;-76
2023/11/06 06:05:16;;;;;;;;;;;;;;;10.13;76.86;98203.22;4851106;29;19924;-76
2023/11/06 06:07:44;;;;;;;;;;;;;;;10.20;76.71;98204.72;4833423;29;19931;-74
2023/11/06 06:10:12;;;;;;;;;;;;;;;10.05;76.79;98154.09;4850523;29;19925;-75
2023/11/06 06:12:41;;;;;;;;;;;;;;;10.30;76.82;98189.66;4852706;29;19928;-75
2023/11/06 06:15:11;;;;;;;;;;;;;;;10.30;76.68;98194.88;4834945;29;19924;-75
2023/11/06 06:17:38;;;;;;;;;;;;;;;10.31;76.41;98183.56;4852688;29;19985;-74
2023/11/06 06:20:05;;;;;;;;;;;;;;;10.34;76.25;98185.19;4823268;29;19928;-76
2023/11/06 06:22:40;;;;;;;;;;;;;;;10.38;76.62;98185.06;4840663;29;19931;-76
2023/11/06 06:25:06;;;;;;;;;;;;;;;10.38;76.27;98190.25;4839973;29;19978;-76
2023/11/06 06:28:14;;;;;;;;;;;;;;;10.40;75.71;98190.22;4857268;29;20062;-75
2023/11/06 06:30:41;;;;;;;;;;;;;;;10.39;76.13;98197.16;4822004;29;19969;-74
2023/11/06 06:33:07;;;;;;;;;;;;;;;10.39;75.72;98201.53;4838186;29;19953;-74
2023/11/06 06:35:39;;;;;;;;;;;;;;;10.36;76.04;98196.41;4837500;29;19931;-72
2023/11/06 06:38:16;;;;;;;;;;;;;;;10.37;75.45;98190.31;4836840;29;19936;-74
2023/11/06 06:40:49;;;;;;;;;;;;;;;10.38;75.63;98186.81;4851628;29;19951;-74
2023/11/06 06:43:36;;;;;;;;;;;;;;;10.42;76.02;98174.56;4823258;29;20380;-77
2023/11/06 06:46:14;;;;;;;;;;;;;;;10.47;75.89;98173.53;4829573;29;19929;-79
2023/11/06 06:48:44;;;;;;;;;;;;;;;10.54;75.41;98182.78;4854817;29;20405;-77
2023/11/06 06:51:27;;;;;;;;;;;;;;;10.49;74.94;98173.47;4837520;29;19924;-79
2023/11/06 06:57:44;;;;;;;;;;;;;;;10.51;75.36;98171.66;4795630;29;20015;-75
2023/11/06 07:00:21;;;;;;;;;;;;;;;10.60;75.57;98168.72;4839968;29;19931;-75
2023/11/06 07:02:53;;;;;;;;;;;;;;;10.65;74.88;98179.81;4845223;29;20192;-75
2023/11/06 07:08:29;;;;;;;;;;;;;;;10.65;75.35;98179.81;4848776;29;19928;-75
2023/11/06 07:11:29;;;;;;;;;;;;;;;10.65;74.74;98179.81;4839172;29;19924;-77
2023/11/06 07:14:16;;;;;;;;;;;;;;;10.63;74.74;98180.78;4826426;29;20268;-73
2023/11/06 07:16:41;;;;;;;;;;;;;;;10.63;74.67;98170.38;4843837;29;20388;-73
2023/11/06 07:19:07;;;;;;;;;;;;;;;10.61;74.50;98180.81;4838522;29;19948;-73
2023/11/06 07:21:33;;;;;;;;;;;;;;;10.59;74.71;98189.59;4824082;29;20961;-80
2023/11/06 07:24:02;;;;;;;;;;;;;;;10.59;74.71;98179.19;4857639;29;19931;-79
2023/11/06 07:26:28;;;;;;;;;;;;;;;10.56;74.49;98177.56;4841925;29;19931;-79
2023/11/06 07:28:54;;;;;;;;;;;;;;;10.61;74.83;98183.44;4855175;29;20192;-79
2023/11/06 07:31:24;;;;;;;;;;;;;;;10.68;74.33;98177.13;4825341;29;19988;-77
2023/11/06 07:33:57;;;;;;;;;;;;;;;10.73;74.70;98168.31;4826960;29;19924;-80
2023/11/06 07:36:23;;;;;;;;;;;;;;;10.78;74.72;98188.03;4857696;29;20316;-79
2023/11/06 07:38:52;;;;;;;;;;;;;;;10.70;74.17;98183.13;4827755;29;19924;-80
2023/11/06 07:41:18;;;;;;;;;;;;;;;10.64;73.89;98182.50;4841986;29;20059;-76
2023/11/06 07:43:47;;;;;;;;;;;;;;;10.62;74.42;98171.28;4839434;29;19928;-75
2023/11/06 07:46:21;;;;;;;;;;;;;;;10.62;74.14;98164.31;4853342;29;19924;-75
2023/11/06 07:48:48;;;;;;;;;;;;;;;10.69;74.30;98178.81;4853917;29;20396;-75
2023/11/06 07:51:17;;;;;;;;;;;;;;;10.75;74.21;98169.09;4838925;29;19929;-76
2023/11/06 07:53:43;;;;;;;;;;;;;;;10.79;74.44;98168.94;4838687;29;19928;-75
2023/11/06 07:56:29;;;;;;;;;;;;;;;10.87;74.39;98165.22;4836713;29;19931;-74
2023/11/06 07:59:02;;;;;;;;;;;;;;;10.83;73.65;98156.66;4834650;29;19950;-76
2023/11/06 08:01:30;;;;;;;;;;;;;;;10.90;74.09;98170.31;4849343;29;19924;-74
2023/11/06 08:03:56;;;;;;;;;;;;;;;10.92;74.17;98168.50;4837905;29;19991;-75
2023/11/06 08:06:25;;;;;;;;;;;;;;;10.87;73.50;98163.44;4852190;29;19943;-74
2023/11/06 08:08:54;;;;;;;;;;;;;;;10.87;73.83;98175.63;4836882;29;20023;-75
2023/11/06 08:11:40;;;;;;;;;;;;;;;10.92;73.72;98178.91;4838916;29;19924;-74
2023/11/06 08:14:34;;;;;;;;;;;;;;;10.92;73.88;98173.72;4833767;29;20332;-73
2023/11/06 08:17:04;;;;;;;;;;;;;;;10.93;73.85;98175.38;4852932;29;19959;-74
2023/11/06 08:19:30;;;;;;;;;;;;;;;10.97;73.86;98184.78;4837705;29;20068;-74
2023/11/06 08:21:58;;;;;;;;;;;;;;;10.97;74.07;98175.25;4853545;29;20030;-73
2023/11/06 08:24:24;;;;;;;;;;;;;;;11.02;74.06;98174.22;4823352;29;19928;-73
2023/11/06 08:26:52;;;;;;;;;;;;;;;10.98;73.99;98165.66;4837820;29;19943;-73
2023/11/06 08:29:24;;;;;;;;;;;;;;;11.03;74.03;98168.13;4822396;29;19940;-75
2023/11/06 08:31:50;;;;;;;;;;;;;;;11.08;74.19;98161.81;4814800;29;19932;-73
2023/11/06 08:34:21;;;;;;;;;;;;;;;11.12;74.22;98155.59;4853534;29;19924;-74
2023/11/06 08:37:07;;;;;;;;;;;;;;;11.08;73.81;98142.75;4837589;29;19932;-74
2023/11/06 08:39:33;;;;;;;;;;;;;;;11.09;74.14;98141.84;4838601;29;19943;-74
2023/11/06 08:41:59;;;;;;;;;;;;;;;11.03;73.99;98126.47;4838551;29;19928;-75
2023/11/06 08:44:24;;;;;;;;;;;;;;;11.19;74.32;98140.59;4849906;29;20394;-75
2023/11/06 08:46:56;;;;;;;;;;;;;;;11.22;74.37;98132.69;4838637;29;19924;-76
2023/11/06 08:49:22;;;;;;;;;;;;;;;11.28;74.04;98135.03;4834317;29;19928;-75
2023/11/06 08:51:48;;;;;;;;;;;;;;;11.31;74.29;98128.88;4821718;29;19966;-75
2023/11/06 08:54:24;;;;;;;;;;;;;;;11.29;74.26;98128.91;4823103;29;19967;-75
2023/11/06 08:57:08;;;;;;;;;;;;;;;11.25;73.69;98127.34;4846856;29;20018;-75
2023/11/06 08:59:37;;;;;;;;;;;;;;;11.26;73.74;98122.97;4837221;29;19932;-77
2023/11/06 09:02:03;;;;;;;;;;;;;;;11.27;74.03;98122.06;4841912;29;19928;-75
2023/11/06 09:05:12;;;;;;;;;;;;;;;11.28;74.15;98115.97;4838499;29;19927;-78
2023/11/06 09:08:20;;;;;;;;;;;;;;;11.39;74.18;98110.34;4835852;29;20392;-76
2023/11/06 09:10:46;;;;;;;;;;;;;;;11.47;74.17;98104.81;4856649;29;19960;-75
2023/11/06 09:13:16;;;;;;;;;;;;;;;11.56;74.28;98113.13;4854243;29;19924;-77
2023/11/06 09:16:34;;;;;;;;;;;;;;;11.58;73.99;98102.66;4835655;29;19935;-75
2023/11/06 09:19:10;;;;;;;;;;;;;;;11.55;73.86;98094.97;4838573;29;20295;-79
2023/11/06 09:22:30;;;;;;;;;;;;;;;11.62;73.76;98093.78;4841842;29;20312;-79
2023/11/06 09:25:01;;;;;;;;;;;;;;;11.73;74.28;98101.16;4837684;29;19935;-78
2023/11/06 09:31:19;;;;;;;;;;;;;;;;;;;;;
2023/11/06 09:35:14;;;;;;;;;;;;;;;11.78;73.70;98067.13;4751663;30;19926;-77
2023/11/06 09:37:47;;;;;;;;;;;;;;;11.81;73.68;98064.38;4746103;30;19934;-77
2023/11/06 09:40:53;;;;;;;;;;;;;;;11.86;73.70;98060.69;4745995;30;20348;-76
2023/11/06 09:43:29;;;;;;;;;;;;;;;11.89;73.64;98049.25;4789610;29;19924;-78
2023/11/06 09:46:08;;;;;;;;;;;;;;;11.97;73.07;98055.00;4821459;29;20407;-76
2023/11/06 09:48:46;;;;;;;;;;;;;;;12.07;73.61;98045.06;4823118;29;19928;-76
2023/11/06 09:51:12;;;;;;;;;;;;;;;12.12;73.76;98042.25;4837292;29;20451;-79
2023/11/06 09:53:40;;;;;;;;;;;;;;;12.14;73.52;98046.47;4821146;29;19928;-79
2023/11/06 09:56:11;;;;;;;;;;;;;;;12.06;73.07;98038.16;4844803;29;19931;-80
2023/11/06 09:58:38;;;;;;;;;;;;;;;11.98;73.08;98033.25;4843003;29;19928;-74
2023/11/06 10:01:07;;;;;;;;;;;;;;;11.98;73.60;98027.16;4870516;29;19923;-74
2023/11/06 10:03:36;;;;;;;;;;;;;;;11.70;72.98;97987.50;4854503;29;20413;-74
2023/11/06 10:06:06;;;;;;;;;;;;;;;11.78;73.35;97999.38;4872962;29;20031;-74
2023/11/06 10:08:34;;;;;;;;;;;;;;;11.93;73.21;98016.94;4835713;29;19924;-74
2023/11/06 10:11:01;;;;;;;;;;;;;;;11.99;73.00;98013.25;4853662;29;19980;-75
2023/11/06 10:13:49;;;;;;;;;;;;;;;11.98;73.37;98012.41;4859984;29;20019;-73
2023/11/06 10:16:24;;;;;;;;;;;;;;;11.99;72.95;98008.91;4839113;29;20390;-73
2023/11/06 10:18:51;;;;;;;;;;;;;;;11.95;73.09;98004.72;4860206;29;19923;-76
2023/11/06 10:21:29;;;;;;;;;;;;;;;11.98;73.04;98007.19;4872783;29;19980;-78
2023/11/06 10:24:00;;;;;;;;;;;;;;;12.10;73.28;98012.78;4854451;29;20004;-77
2023/11/06 10:26:32;;;;;;;;;;;;;;;12.15;73.23;98003.03;4846167;29;19924;-77
2023/11/06 10:29:12;;;;;;;;;;;;;;;12.16;72.62;98000.34;4855384;29;19928;-77
2023/11/06 10:31:39;;;;;;;;;;;;;;;12.18;73.26;98008.94;4870182;29;20691;-77
2023/11/06 10:34:23;;;;;;;;;;;;;;;12.21;72.95;98000.16;4844167;29;19931;-73
2023/11/06 10:37:02;;;;;;;;;;;;;;;12.17;73.24;97994.22;4872564;29;19931;-84
2023/11/06 10:39:29;;;;;;;;;;;;;;;12.18;73.09;98003.72;4850477;29;19924;-78
2023/11/06 10:42:02;;;;;;;;;;;;;;;12.25;73.28;97993.84;4855583;29;19958;-80
2023/11/06 10:44:30;;;;;;;;;;;;;;;12.30;72.96;97991.06;4855719;29;19923;-84
2023/11/06 10:46:59;;;;;;;;;;;;;;;12.35;73.03;97994.31;4848208;29;19928;-77
2023/11/06 10:49:33;;;;;;;;;;;;;;;12.27;72.83;97980.78;4869645;29;19959;-78
2023/11/06 10:51:59;;;;;;;;;;;;;;;12.24;73.04;97981.78;4850683;29;19928;-78
2023/11/06 10:54:27;;;;;;;;;;;;;;;12.27;73.19;97975.56;4861953;29;19930;-79
2023/11/06 10:56:57;;;;;;;;;;;;;;;12.29;73.19;97974.56;4851458;29;20199;-79
2023/11/06 10:59:26;;;;;;;;;;;;;;;12.21;72.66;97976.69;4838017;29;20514;-79
2023/11/06 11:02:02;;;;;;;;;;;;;;;12.11;72.96;97975.38;4854043;29;20613;-77
2023/11/06 11:04:30;;;;;;;;;;;;;;;12.09;72.98;97972.84;4869263;29;19930;-78
2023/11/06 11:07:00;;;;;;;;;;;;;;;12.03;72.86;97979.16;4857507;29;20931;-80
2023/11/06 11:09:27;;;;;;;;;;;;;;;11.96;73.17;97969.91;4857375;29;20000;-76
2023/11/06 11:12:05;;;;;;;;;;;;;;;11.90;73.26;97965.81;4856485;29;20390;-78
2023/11/06 11:14:36;;;;;;;;;;;;;;;11.91;72.96;97956.22;4857393;29;20035;-78
2023/11/06 11:17:09;;;;;;;;;;;;;;;11.90;73.58;97962.34;4856234;29;19942;-75
2023/11/06 11:19:35;;;;;;;;;;;;;;;11.83;73.17;97955.69;4873771;29;20022;-75
2023/11/06 11:22:08;;;;;;;;;;;;;;;11.81;73.48;97957.53;4857782;29;19970;-75
2023/11/06 11:24:47;;;;;;;;;;;;;;;11.85;73.82;97957.34;4857690;29;19928;-76
2023/11/06 11:27:17;;;;;;;;;;;;;;;11.84;73.86;97952.19;4872426;29;19995;-76
2023/11/06 11:29:52;;;;;;;;;;;;;;;11.83;73.87;97956.56;4857030;29;20399;-81
2023/11/06 11:32:33;;;;;;;;;;;;;;;11.86;74.22;97952.97;4874325;29;20026;-81
2023/11/06 11:35:11;;;;;;;;;;;;;;;11.88;73.92;97958.97;4871525;29;20634;-81
2023/11/06 11:37:38;;;;;;;;;;;;;;;11.83;73.70;97943.53;4856794;29;19982;-78
2023/11/06 11:40:09;;;;;;;;;;;;;;;11.74;73.92;97951.72;4862977;29;19959;-80
2023/11/06 11:42:36;;;;;;;;;;;;;;;11.76;74.71;97942.09;4844329;29;20252;-80
2023/11/06 11:45:08;;;;;;;;;;;;;;;11.80;74.23;97945.44;4871557;29;19951;-80
2023/11/06 11:47:48;;;;;;;;;;;;;;;11.75;74.56;97945.63;4858271;29;19967;-80
2023/11/06 11:53:52;;;;;;;;;;;;;;;11.66;74.64;97953.84;4831378;29;19972;-82
2023/11/06 11:56:39;;;;;;;;;;;;;;;11.65;74.82;97954.75;4861640;29;19923;-86
2023/11/06 11:59:05;;;;;;;;;;;;;;;11.65;74.97;97937.34;4861185;29;20019;-86
2023/11/06 12:01:35;;;;;;;;;;;;;;;11.68;75.23;97941.59;4858681;29;19961;-81
2023/11/06 12:04:15;;;;;;;;;;;;;;;11.64;74.63;97935.66;4846502;29;20026;-79
2023/11/06 12:06:41;;;;;;;;;;;;;;;11.53;75.28;97930.06;4871122;29;19923;-80
2023/11/06 12:09:10;;;;;;;;;;;;;;;11.50;74.93;97922.38;4853455;29;20018;-76
2023/11/06 12:11:35;;;;;;;;;;;;;;;11.48;75.45;97937.22;4857208;29;20052;-85
2023/11/06 12:14:27;;;;;;;;;;;;;;;11.48;75.86;97929.41;4862125;29;19981;-87
2023/11/06 12:16:55;;;;;;;;;;;;;;;11.46;75.67;97929.50;4862781;29;20003;-84
2023/11/06 12:19:47;;;;;;;;;;;;;;;11.44;76.02;97923.50;4848162;29;19924;-79
2023/11/06 12:22:20;;;;;;;;;;;;;;;11.51;75.82;97924.91;4842316;29;19974;-81
2023/11/06 12:24:52;;;;;;;;;;;;;;;11.54;76.22;97935.19;4859309;29;20011;-72
2023/11/06 12:27:18;;;;;;;;;;;;;;;11.55;75.77;97921.28;4859602;29;20002;-87
2023/11/06 12:29:45;;;;;;;;;;;;;;;11.52;76.21;97931.81;4860079;29;20014;-80
2023/11/06 12:32:20;;;;;;;;;;;;;;;11.56;76.46;97917.75;4875657;29;19923;-84
2023/11/06 12:35:01;;;;;;;;;;;;;;;11.57;75.92;97927.25;4858729;29;19924;-84
2023/11/06 12:37:50;;;;;;;;;;;;;;;11.53;76.37;97917.06;4871611;29;19927;-81
2023/11/06 12:40:26;;;;;;;;;;;;;;;11.54;76.35;97909.16;4827616;29;19961;-80
2023/11/06 12:42:52;;;;;;;;;;;;;;;11.51;76.53;97909.28;4841801;29;19928;-80
2023/11/06 12:45:30;;;;;;;;;;;;;;;11.59;76.93;97916.75;4858559;29;19924;-72
2023/11/06 12:47:56;;;;;;;;;;;;;;;11.61;76.63;97907.13;4856280;29;19930;-82
2023/11/06 12:50:23;;;;;;;;;;;;;;;11.58;76.54;97912.50;4857251;29;19928;-77
2023/11/06 12:52:48;;;;;;;;;;;;;;;11.57;76.78;97903.00;4841963;29;19935;-76
2023/11/06 12:55:17;;;;;;;;;;;;;;;11.59;76.77;97902.00;4843125;29;19927;-87
2023/11/06 12:57:46;;;;;;;;;;;;;;;11.63;76.81;97905.31;4862662;29;19928;-81
2023/11/06 13:00:29;;;;;;;;;;;;;;;11.63;76.83;97896.66;4859274;29;20362;-80
2023/11/06 13:02:55;;;;;;;;;;;;;;;11.65;77.09;97898.28;4869840;29;19958;-81
2023/11/06 13:05:21;;;;;;;;;;;;;;;11.64;76.49;97893.97;4872326;29;19930;-83
2023/11/06 13:07:58;;;;;;;;;;;;;;;11.58;76.75;97884.69;4842870;29;19928;-79
2023/11/06 13:10:26;;;;;;;;;;;;;;;11.56;76.58;97885.66;4876979;29;19984;-79
2023/11/06 13:12:53;;;;;;;;;;;;;;;11.45;76.83;97884.34;4864653;29;20417;-80
2023/11/06 13:15:19;;;;;;;;;;;;;;;11.39;77.21;97884.59;4845432;29;19976;-80
2023/11/06 13:17:52;;;;;;;;;;;;;;;11.38;77.48;97882.91;4858135;29;19924;-80
2023/11/06 13:20:25;;;;;;;;;;;;;;;11.35;77.42;97880.47;4857774;29;19928;-80
2023/11/06 13:23:07;;;;;;;;;;;;;;;11.37;77.48;97888.19;4856963;29;20387;-81